createdAt,value
2016-10-06T00:00:04.955Z,1010.41
2016-10-06T00:00:29.241Z,1010.49
2016-10-06T00:00:50.956Z,1010.51
2016-10-06T00:01:12.681Z,1010.48
2016-10-06T00:01:34.395Z,1010.33
2016-10-06T00:01:56.112Z,1010.51
2016-10-06T00:02:17.818Z,1010.53
2016-10-06T00:02:39.538Z,1010.61
2016-10-06T00:03:01.257Z,1010.74
2016-10-06T00:03:22.967Z,1010.57
2016-10-06T00:03:44.696Z,1010.52
2016-10-06T00:04:06.410Z,1010.58
2016-10-06T00:04:28.125Z,1010.71
2016-10-06T00:04:49.837Z,1010.59
2016-10-06T00:05:11.559Z,1010.67
2016-10-06T00:05:38.033Z,1010.68
2016-10-06T00:05:59.777Z,1010.51
2016-10-06T00:06:21.494Z,1010.40
2016-10-06T00:06:43.214Z,1010.49
2016-10-06T00:07:04.939Z,1010.31
2016-10-06T00:07:26.659Z,1010.42
2016-10-06T00:07:53.156Z,1010.49
2016-10-06T00:08:14.879Z,1010.66
2016-10-06T00:08:36.588Z,1010.61
2016-10-06T00:08:58.293Z,1010.60
2016-10-06T00:09:20.009Z,1010.47
2016-10-06T00:09:41.722Z,1010.44
2016-10-06T00:10:03.440Z,1010.43
2016-10-06T00:10:25.171Z,1010.31
2016-10-06T00:10:46.884Z,1010.32
2016-10-06T00:11:08.595Z,1010.22
2016-10-06T00:11:30.306Z,1010.21
2016-10-06T00:11:52.019Z,1010.54
2016-10-06T00:12:40.226Z,1010.39
2016-10-06T00:13:06.724Z,1010.65
2016-10-06T00:13:28.442Z,1010.45
2016-10-06T00:13:50.158Z,1010.39
2016-10-06T00:14:11.880Z,1010.38
2016-10-06T00:14:33.590Z,1010.49
2016-10-06T00:14:56.302Z,1010.36
2016-10-06T00:15:18.016Z,1010.61
2016-10-06T00:15:39.730Z,1010.53
2016-10-06T00:16:01.439Z,1010.44
2016-10-06T00:16:23.165Z,1010.40
2016-10-06T00:16:44.884Z,1010.48
2016-10-06T00:17:06.609Z,1010.40
2016-10-06T00:17:28.322Z,1010.27
2016-10-06T00:17:50.036Z,1010.47
2016-10-06T00:18:11.754Z,1010.57
2016-10-06T00:18:33.486Z,1010.51
2016-10-06T00:18:55.202Z,1010.48
2016-10-06T00:19:16.927Z,1010.34
2016-10-06T00:19:38.640Z,1010.36
2016-10-06T00:20:00.360Z,1010.36
2016-10-06T00:20:26.849Z,1010.32
2016-10-06T00:20:48.564Z,1010.24
2016-10-06T00:21:10.279Z,1010.30
2016-10-06T00:21:32.015Z,1010.22
2016-10-06T00:21:53.735Z,1010.31
2016-10-06T00:22:15.455Z,1010.38
2016-10-06T00:22:37.171Z,1010.23
2016-10-06T00:22:58.895Z,1010.45
2016-10-06T00:23:20.618Z,1010.46
2016-10-06T00:23:42.341Z,1010.38
2016-10-06T00:24:04.050Z,1010.42
2016-10-06T00:24:25.765Z,1010.42
2016-10-06T00:24:47.475Z,1010.25
2016-10-06T00:25:09.183Z,1010.43
2016-10-06T00:25:30.899Z,1010.37
2016-10-06T00:25:52.609Z,1010.17
2016-10-06T00:26:14.324Z,1010.42
2016-10-06T00:26:36.042Z,1010.28
2016-10-06T00:26:57.764Z,1010.27
2016-10-06T00:27:19.504Z,1010.18
2016-10-06T00:27:41.224Z,1010.15
2016-10-06T00:28:02.929Z,1010.26
2016-10-06T00:28:29.420Z,1010.28
2016-10-06T00:28:55.913Z,1010.36
2016-10-06T00:29:17.625Z,1010.43
2016-10-06T00:29:39.340Z,1010.52
2016-10-06T00:30:01.050Z,1010.39
2016-10-06T00:30:22.800Z,1010.40
2016-10-06T00:30:44.516Z,1010.17
2016-10-06T00:31:06.256Z,1010.30
2016-10-06T00:31:27.968Z,1010.26
2016-10-06T00:31:49.688Z,1010.29
2016-10-06T00:32:11.400Z,1010.09
2016-10-06T00:32:33.126Z,1010.27
2016-10-06T00:32:54.856Z,1010.48
2016-10-06T00:33:16.587Z,1010.28
2016-10-06T00:33:38.303Z,1010.51
2016-10-06T00:34:00.032Z,1010.47
2016-10-06T00:34:21.753Z,1010.29
2016-10-06T00:35:09.958Z,1010.32
2016-10-06T00:35:31.743Z,1010.32
2016-10-06T00:35:53.464Z,1010.49
2016-10-06T00:36:15.185Z,1010.57
2016-10-06T00:36:36.901Z,1010.40
2016-10-06T00:36:58.627Z,1010.26
2016-10-06T00:37:20.345Z,1010.11
2016-10-06T00:37:42.055Z,1010.27
2016-10-06T00:38:03.782Z,1010.42
2016-10-06T00:38:25.491Z,1010.44
2016-10-06T00:38:47.212Z,1010.35
2016-10-06T00:39:08.929Z,1010.33
2016-10-06T00:39:30.646Z,1010.43
2016-10-06T00:39:52.355Z,1010.29
2016-10-06T00:40:14.097Z,1010.23
2016-10-06T00:40:35.813Z,1010.33
2016-10-06T00:40:57.524Z,1010.41
2016-10-06T00:41:19.243Z,1010.46
2016-10-06T00:41:40.962Z,1010.40
2016-10-06T00:42:02.681Z,1010.30
2016-10-06T00:42:24.393Z,1010.41
2016-10-06T00:42:46.121Z,1010.21
2016-10-06T00:43:07.843Z,1010.13
2016-10-06T00:43:29.559Z,1010.26
2016-10-06T00:43:51.277Z,1010.37
2016-10-06T00:44:12.991Z,1010.10
2016-10-06T00:44:34.717Z,1009.99
2016-10-06T00:44:56.440Z,1010.21
2016-10-06T00:45:22.926Z,1010.20
2016-10-06T00:45:44.644Z,1010.29
2016-10-06T00:46:06.355Z,1010.35
2016-10-06T00:46:28.069Z,1010.29
2016-10-06T00:46:49.785Z,1010.29
2016-10-06T00:47:11.501Z,1010.10
2016-10-06T00:47:33.219Z,1010.24
2016-10-06T00:47:54.932Z,1010.22
2016-10-06T00:48:16.650Z,1010.26
2016-10-06T00:48:38.364Z,1010.24
2016-10-06T00:49:00.079Z,1010.26
2016-10-06T00:49:22.793Z,1010.40
2016-10-06T00:49:44.504Z,1010.44
2016-10-06T00:50:06.219Z,1010.22
2016-10-06T00:50:32.713Z,1010.29
2016-10-06T00:50:54.427Z,1010.29
2016-10-06T00:51:16.144Z,1010.22
2016-10-06T00:51:37.854Z,1010.19
2016-10-06T00:52:00.566Z,1010.29
2016-10-06T00:52:22.279Z,1010.33
2016-10-06T00:52:43.993Z,1010.12
2016-10-06T00:53:05.702Z,1010.08
2016-10-06T00:53:27.414Z,1010.15
2016-10-06T00:53:49.133Z,1010.19
2016-10-06T00:54:10.851Z,1010.10
2016-10-06T00:54:32.559Z,1010.12
2016-10-06T00:54:59.046Z,1010.23
2016-10-06T00:55:20.755Z,1010.05
2016-10-06T00:55:42.483Z,1010.10
2016-10-06T00:56:04.208Z,1010.14
2016-10-06T00:56:25.928Z,1010.16
2016-10-06T00:56:48.647Z,1010.25
2016-10-06T00:57:10.369Z,1010.39
2016-10-06T00:57:58.570Z,1010.18
2016-10-06T00:58:20.287Z,1010.10
2016-10-06T00:58:42.005Z,1010.10
2016-10-06T00:59:03.708Z,1010.14
2016-10-06T00:59:25.430Z,1010.02
2016-10-06T00:59:47.147Z,1009.98
2016-10-06T01:00:08.863Z,1010.13
2016-10-06T01:00:35.346Z,1010.01
2016-10-06T01:00:57.081Z,1010.08
2016-10-06T01:01:18.778Z,1010.08
2016-10-06T01:01:40.485Z,1010.02
2016-10-06T01:02:04.840Z,1010.04
2016-10-06T01:02:26.567Z,1010.15
2016-10-06T01:02:53.052Z,1010.07
2016-10-06T01:03:14.794Z,1010.13
2016-10-06T01:03:36.511Z,1009.97
2016-10-06T01:03:58.233Z,1010.17
2016-10-06T01:04:19.944Z,1010.00
2016-10-06T01:04:41.665Z,1010.26
2016-10-06T01:05:03.378Z,1010.01
2016-10-06T01:05:25.097Z,1010.01
2016-10-06T01:05:46.810Z,1010.04
2016-10-06T01:06:08.526Z,1009.92
2016-10-06T01:06:30.237Z,1009.95
2016-10-06T01:06:51.952Z,1010.08
2016-10-06T01:07:13.674Z,1009.82
2016-10-06T01:07:35.382Z,1009.87
2016-10-06T01:07:57.108Z,1009.93
2016-10-06T01:08:18.812Z,1010.06
2016-10-06T01:08:40.521Z,1010.08
2016-10-06T01:09:02.236Z,1009.96
2016-10-06T01:09:23.949Z,1009.98
2016-10-06T01:09:45.662Z,1010.01
2016-10-06T01:10:07.373Z,1009.74
2016-10-06T01:10:29.119Z,1009.81
2016-10-06T01:10:50.828Z,1010.00
2016-10-06T01:11:12.547Z,1010.03
2016-10-06T01:11:34.271Z,1009.99
2016-10-06T01:11:55.980Z,1009.92
2016-10-06T01:12:22.468Z,1010.15
2016-10-06T01:12:44.181Z,1010.24
2016-10-06T01:13:05.894Z,1009.88
2016-10-06T01:13:27.610Z,1009.99
2016-10-06T01:13:49.331Z,1009.94
2016-10-06T01:14:11.044Z,1009.91
2016-10-06T01:14:32.757Z,1009.80
2016-10-06T01:14:54.472Z,1009.99
2016-10-06T01:15:16.189Z,1010.08
2016-10-06T01:15:37.900Z,1009.90
2016-10-06T01:15:59.625Z,1009.76
2016-10-06T01:16:21.341Z,1009.91
2016-10-06T01:16:43.057Z,1009.83
2016-10-06T01:17:09.539Z,1009.87
2016-10-06T01:17:31.254Z,1009.67
2016-10-06T01:17:57.747Z,1009.96
2016-10-06T01:18:19.458Z,1009.90
2016-10-06T01:18:41.237Z,1009.86
2016-10-06T01:19:02.954Z,1010.20
2016-10-06T01:19:24.664Z,1009.85
2016-10-06T01:19:46.385Z,1009.78
2016-10-06T01:20:08.095Z,1009.96
2016-10-06T01:20:29.812Z,1009.87
2016-10-06T01:20:51.539Z,1009.91
2016-10-06T01:21:13.248Z,1009.83
2016-10-06T01:21:34.971Z,1009.83
2016-10-06T01:21:56.691Z,1009.84
2016-10-06T01:22:18.403Z,1009.70
2016-10-06T01:23:06.602Z,1009.85
2016-10-06T01:23:28.317Z,1009.80
2016-10-06T01:23:50.036Z,1009.77
2016-10-06T01:24:11.752Z,1009.69
2016-10-06T01:24:33.466Z,1009.81
2016-10-06T01:24:55.169Z,1009.84
2016-10-06T01:25:16.899Z,1009.76
2016-10-06T01:25:38.601Z,1009.89
2016-10-06T01:26:00.317Z,1009.73
2016-10-06T01:26:48.514Z,1009.57
2016-10-06T01:27:10.233Z,1009.60
2016-10-06T01:27:31.954Z,1009.93
2016-10-06T01:27:53.669Z,1009.75
2016-10-06T01:28:15.376Z,1009.94
2016-10-06T01:28:37.092Z,1009.91
2016-10-06T01:28:58.801Z,1009.80
2016-10-06T01:29:20.511Z,1009.67
2016-10-06T01:29:42.226Z,1009.87
2016-10-06T01:30:03.937Z,1009.82
2016-10-06T01:30:25.655Z,1009.82
2016-10-06T01:30:47.383Z,1009.98
2016-10-06T01:31:09.102Z,1009.73
2016-10-06T01:31:30.827Z,1009.81
2016-10-06T01:31:52.536Z,1009.79
2016-10-06T01:32:15.274Z,1009.76
2016-10-06T01:32:36.983Z,1009.96
2016-10-06T01:32:58.695Z,1009.90
2016-10-06T01:33:20.411Z,1009.70
2016-10-06T01:33:42.117Z,1009.61
2016-10-06T01:34:03.822Z,1009.78
2016-10-06T01:34:25.617Z,1009.74
2016-10-06T01:34:47.316Z,1009.73
2016-10-06T01:35:09.035Z,1009.76
2016-10-06T01:35:30.745Z,1009.79
2016-10-06T01:35:52.470Z,1009.72
2016-10-06T01:36:14.179Z,1009.82
2016-10-06T01:36:35.889Z,1009.74
2016-10-06T01:36:57.611Z,1009.71
2016-10-06T01:37:24.101Z,1009.70
2016-10-06T01:37:45.817Z,1009.79
2016-10-06T01:38:07.527Z,1009.64
2016-10-06T01:38:29.237Z,1009.55
2016-10-06T01:38:50.948Z,1009.67
2016-10-06T01:39:12.664Z,1009.73
2016-10-06T01:39:34.374Z,1009.64
2016-10-06T01:39:56.089Z,1009.78
2016-10-06T01:40:17.799Z,1009.74
2016-10-06T01:40:39.515Z,1009.83
2016-10-06T01:41:01.237Z,1009.64
2016-10-06T01:41:22.953Z,1009.71
2016-10-06T01:41:44.667Z,1009.67
2016-10-06T01:42:06.377Z,1009.69
2016-10-06T01:42:28.090Z,1009.68
2016-10-06T01:42:50.009Z,1009.63
2016-10-06T01:43:11.721Z,1009.79
2016-10-06T01:43:33.436Z,1009.88
2016-10-06T01:43:59.932Z,1009.81
2016-10-06T01:44:21.647Z,1009.70
2016-10-06T01:44:43.361Z,1009.59
2016-10-06T01:45:05.084Z,1009.63
2016-10-06T01:45:26.794Z,1009.56
2016-10-06T01:45:48.515Z,1009.54
2016-10-06T01:46:10.225Z,1009.55
2016-10-06T01:46:31.965Z,1009.54
2016-10-06T01:46:54.021Z,1009.58
2016-10-06T01:47:20.511Z,1009.70
2016-10-06T01:47:42.224Z,1009.85
2016-10-06T01:48:03.933Z,1009.62
2016-10-06T01:48:25.646Z,1009.48
2016-10-06T01:48:47.361Z,1009.64
2016-10-06T01:49:09.072Z,1009.59
2016-10-06T01:49:30.786Z,1009.64
2016-10-06T01:49:57.271Z,1009.68
2016-10-06T01:50:18.988Z,1009.67
2016-10-06T01:50:40.702Z,1009.65
2016-10-06T01:51:02.416Z,1009.59
2016-10-06T01:51:24.133Z,1009.82
2016-10-06T01:51:45.846Z,1009.76
2016-10-06T01:52:07.556Z,1009.72
2016-10-06T01:52:29.271Z,1009.64
2016-10-06T01:52:50.993Z,1009.76
2016-10-06T01:53:12.706Z,1009.54
2016-10-06T01:53:34.423Z,1009.65
2016-10-06T01:53:56.136Z,1009.78
2016-10-06T01:54:22.619Z,1009.74
2016-10-06T01:54:44.342Z,1009.65
2016-10-06T01:55:06.051Z,1009.57
2016-10-06T01:55:27.772Z,1009.55
2016-10-06T01:55:49.485Z,1009.51
2016-10-06T01:56:15.970Z,1009.49
2016-10-06T01:56:37.679Z,1009.46
2016-10-06T01:56:59.390Z,1009.42
2016-10-06T01:57:21.100Z,1009.57
2016-10-06T01:57:42.816Z,1009.72
2016-10-06T01:58:04.535Z,1009.53
2016-10-06T01:58:26.247Z,1009.60
2016-10-06T01:58:47.962Z,1009.55
2016-10-06T01:59:09.680Z,1009.65
2016-10-06T01:59:31.393Z,1009.67
2016-10-06T01:59:53.112Z,1009.69
2016-10-06T02:00:14.821Z,1009.66
2016-10-06T02:00:36.533Z,1009.70
2016-10-06T02:00:58.241Z,1009.62
2016-10-06T02:01:19.988Z,1009.65
2016-10-06T02:01:41.698Z,1009.59
2016-10-06T02:02:03.413Z,1009.53
2016-10-06T02:02:25.123Z,1009.52
2016-10-06T02:02:46.839Z,1009.50
2016-10-06T02:03:08.563Z,1009.55
2016-10-06T02:03:30.276Z,1009.54
2016-10-06T02:03:51.991Z,1009.63
2016-10-06T02:04:13.711Z,1009.66
2016-10-06T02:04:35.488Z,1009.58
2016-10-06T02:04:57.200Z,1009.57
2016-10-06T02:05:18.917Z,1009.50
2016-10-06T02:05:41.633Z,1009.58
2016-10-06T02:06:03.343Z,1009.67
2016-10-06T02:06:25.060Z,1009.88
2016-10-06T02:06:46.780Z,1009.76
2016-10-06T02:07:08.486Z,1009.88
2016-10-06T02:07:30.280Z,1009.75
2016-10-06T02:08:18.479Z,1009.69
2016-10-06T02:08:40.198Z,1009.59
2016-10-06T02:09:01.919Z,1009.56
2016-10-06T02:09:23.643Z,1009.60
2016-10-06T02:09:45.354Z,1009.44
2016-10-06T02:10:07.070Z,1009.61
2016-10-06T02:10:28.785Z,1009.58
2016-10-06T02:10:55.283Z,1009.68
2016-10-06T02:11:16.987Z,1009.66
2016-10-06T02:11:38.704Z,1009.62
2016-10-06T02:12:00.421Z,1009.74
2016-10-06T02:12:22.133Z,1009.66
2016-10-06T02:12:43.854Z,1009.83
2016-10-06T02:13:05.566Z,1009.76
2016-10-06T02:13:27.282Z,1009.58
2016-10-06T02:13:49.001Z,1009.55
2016-10-06T02:14:20.264Z,1009.71
2016-10-06T02:14:41.976Z,1009.63
2016-10-06T02:15:03.687Z,1009.64
2016-10-06T02:15:25.398Z,1009.47
2016-10-06T02:15:47.113Z,1009.55
2016-10-06T02:16:08.830Z,1009.65
2016-10-06T02:16:35.313Z,1009.78
2016-10-06T02:16:57.028Z,1009.52
2016-10-06T02:17:18.746Z,1009.37
2016-10-06T02:17:40.459Z,1009.52
2016-10-06T02:18:02.184Z,1009.46
2016-10-06T02:18:23.899Z,1009.44
2016-10-06T02:18:50.399Z,1009.50
2016-10-06T02:19:12.124Z,1009.60
2016-10-06T02:19:33.830Z,1009.57
2016-10-06T02:19:55.544Z,1009.60
2016-10-06T02:20:17.275Z,1009.61
2016-10-06T02:20:38.970Z,1009.53
2016-10-06T02:21:00.679Z,1009.49
2016-10-06T02:21:22.394Z,1009.60
2016-10-06T02:21:44.108Z,1009.59
2016-10-06T02:22:05.825Z,1009.71
2016-10-06T02:22:27.633Z,1009.60
2016-10-06T02:22:49.352Z,1009.65
2016-10-06T02:23:11.071Z,1009.59
2016-10-06T02:23:32.779Z,1009.50
2016-10-06T02:23:54.499Z,1009.53
2016-10-06T02:24:16.209Z,1009.60
2016-10-06T02:24:37.924Z,1009.45
2016-10-06T02:24:59.643Z,1009.50
2016-10-06T02:25:21.356Z,1009.49
2016-10-06T02:25:45.790Z,1009.59
2016-10-06T02:26:07.507Z,1009.55
2016-10-06T02:26:30.213Z,1009.49
2016-10-06T02:26:51.930Z,1009.55
2016-10-06T02:27:13.641Z,1009.56
2016-10-06T02:27:40.124Z,1009.48
2016-10-06T02:28:01.833Z,1009.55
2016-10-06T02:28:23.550Z,1009.57
2016-10-06T02:28:45.260Z,1009.55
2016-10-06T02:29:06.979Z,1009.40
2016-10-06T02:29:28.688Z,1009.41
2016-10-06T02:29:50.397Z,1009.48
2016-10-06T02:30:12.109Z,1009.49
2016-10-06T02:30:33.817Z,1009.60
2016-10-06T02:30:55.525Z,1009.44
2016-10-06T02:31:22.019Z,1009.38
2016-10-06T02:31:43.742Z,1009.41
2016-10-06T02:32:05.448Z,1009.33
2016-10-06T02:32:27.160Z,1009.48
2016-10-06T02:32:48.869Z,1009.47
2016-10-06T02:33:10.578Z,1009.44
2016-10-06T02:33:32.289Z,1009.49
2016-10-06T02:33:54.008Z,1009.49
2016-10-06T02:34:15.720Z,1009.64
2016-10-06T02:34:37.434Z,1009.58
2016-10-06T02:34:59.154Z,1009.46
2016-10-06T02:35:20.869Z,1009.28
2016-10-06T02:35:42.586Z,1009.41
2016-10-06T02:36:04.289Z,1009.39
2016-10-06T02:36:25.996Z,1009.29
2016-10-06T02:37:28.510Z,1009.44
2016-10-06T02:37:50.220Z,1009.33
2016-10-06T02:38:11.931Z,1009.13
2016-10-06T02:38:33.645Z,1009.15
2016-10-06T02:39:22.869Z,1009.53
2016-10-06T02:39:44.578Z,1009.42
2016-10-06T02:40:06.288Z,1009.21
2016-10-06T02:40:28.007Z,1009.18
2016-10-06T02:40:49.722Z,1009.29
2016-10-06T02:41:11.436Z,1009.45
2016-10-06T02:41:33.154Z,1009.41
2016-10-06T02:41:54.866Z,1009.23
2016-10-06T02:42:16.574Z,1009.31
2016-10-06T02:42:38.291Z,1009.13
2016-10-06T02:43:00.014Z,1009.17
2016-10-06T02:43:21.717Z,1009.27
2016-10-06T02:44:09.928Z,1009.05
2016-10-06T02:44:31.640Z,1009.16
2016-10-06T02:44:53.360Z,1009.12
2016-10-06T02:45:15.080Z,1009.21
2016-10-06T02:45:36.787Z,1009.11
2016-10-06T02:45:58.499Z,1009.15
2016-10-06T02:46:20.220Z,1009.33
2016-10-06T02:46:41.924Z,1009.17
2016-10-06T02:47:03.638Z,1009.40
2016-10-06T02:47:25.348Z,1009.23
2016-10-06T02:47:47.068Z,1009.04
2016-10-06T02:48:08.778Z,1009.13
2016-10-06T02:48:30.498Z,1009.02
2016-10-06T02:48:52.207Z,1009.15
2016-10-06T02:49:13.925Z,1009.25
2016-10-06T02:49:35.629Z,1009.39
2016-10-06T02:49:57.334Z,1009.22
2016-10-06T02:50:19.074Z,1009.07
2016-10-06T02:50:40.789Z,1008.95
2016-10-06T02:51:02.501Z,1009.26
2016-10-06T02:51:24.224Z,1009.30
2016-10-06T02:51:45.933Z,1009.28
2016-10-06T02:52:07.648Z,1009.10
2016-10-06T02:52:29.353Z,1009.28
2016-10-06T02:52:51.065Z,1009.04
2016-10-06T02:53:12.776Z,1009.10
2016-10-06T02:53:34.493Z,1009.12
2016-10-06T02:53:56.198Z,1009.13
2016-10-06T02:54:17.911Z,1009.39
2016-10-06T02:54:39.624Z,1009.43
2016-10-06T02:55:01.345Z,1009.30
2016-10-06T02:55:23.069Z,1009.22
2016-10-06T02:55:44.778Z,1009.21
2016-10-06T02:56:38.750Z,1009.30
2016-10-06T02:57:00.466Z,1009.25
2016-10-06T02:57:22.172Z,1009.06
2016-10-06T02:57:43.884Z,1008.90
2016-10-06T02:58:05.596Z,1009.20
2016-10-06T02:58:27.301Z,1009.28
2016-10-06T02:58:49.021Z,1009.20
2016-10-06T02:59:10.737Z,1009.19
2016-10-06T02:59:32.448Z,1009.26
2016-10-06T02:59:54.163Z,1009.21
2016-10-06T03:00:15.869Z,1009.20
2016-10-06T03:00:37.586Z,1009.34
2016-10-06T03:00:59.312Z,1009.47
2016-10-06T03:01:21.038Z,1009.33
2016-10-06T03:01:42.752Z,1009.20
2016-10-06T03:02:04.470Z,1009.16
2016-10-06T03:02:26.184Z,1009.17
2016-10-06T03:02:47.891Z,1009.24
2016-10-06T03:03:14.382Z,1009.09
2016-10-06T03:03:36.096Z,1009.06
2016-10-06T03:03:57.811Z,1009.10
2016-10-06T03:04:20.522Z,1009.23
2016-10-06T03:04:42.241Z,1009.37
2016-10-06T03:05:03.954Z,1009.45
2016-10-06T03:05:25.679Z,1009.27
2016-10-06T03:05:47.394Z,1009.06
2016-10-06T03:06:09.104Z,1009.24
2016-10-06T03:06:30.827Z,1009.22
2016-10-06T03:06:52.551Z,1009.23
2016-10-06T03:07:14.267Z,1009.23
2016-10-06T03:07:35.989Z,1009.16
2016-10-06T03:08:03.462Z,1009.06
2016-10-06T03:08:25.175Z,1009.35
2016-10-06T03:08:46.891Z,1009.33
2016-10-06T03:09:08.592Z,1009.43
2016-10-06T03:09:30.301Z,1009.46
2016-10-06T03:09:52.021Z,1009.24
2016-10-06T03:10:13.742Z,1009.07
2016-10-06T03:10:35.460Z,1009.22
2016-10-06T03:10:57.171Z,1009.31
2016-10-06T03:11:18.880Z,1009.18
2016-10-06T03:11:40.605Z,1009.24
2016-10-06T03:12:02.322Z,1009.13
2016-10-06T03:12:24.038Z,1009.19
2016-10-06T03:12:46.749Z,1009.40
2016-10-06T03:13:08.464Z,1009.09
2016-10-06T03:13:30.180Z,1009.09
2016-10-06T03:13:51.913Z,1009.25
2016-10-06T03:14:13.640Z,1009.27
2016-10-06T03:14:35.347Z,1009.26
2016-10-06T03:14:57.061Z,1009.17
2016-10-06T03:15:18.775Z,1009.11
2016-10-06T03:15:40.483Z,1009.16
2016-10-06T03:16:02.197Z,1009.28
2016-10-06T03:16:23.904Z,1009.28
2016-10-06T03:16:45.613Z,1009.15
2016-10-06T03:17:07.331Z,1009.11
2016-10-06T03:17:29.042Z,1009.21
2016-10-06T03:17:50.760Z,1008.99
2016-10-06T03:18:12.474Z,1009.15
2016-10-06T03:18:34.181Z,1009.04
2016-10-06T03:18:55.893Z,1009.16
2016-10-06T03:19:17.608Z,1009.08
2016-10-06T03:19:39.328Z,1009.09
2016-10-06T03:20:01.045Z,1009.03
2016-10-06T03:20:22.761Z,1008.98
2016-10-06T03:20:44.467Z,1008.81
2016-10-06T03:21:06.176Z,1009.03
2016-10-06T03:21:27.892Z,1009.00
2016-10-06T03:21:50.606Z,1009.04
2016-10-06T03:22:12.333Z,1009.13
2016-10-06T03:22:34.056Z,1009.05
2016-10-06T03:22:55.764Z,1008.94
2016-10-06T03:23:17.484Z,1008.99
2016-10-06T03:23:39.199Z,1009.04
2016-10-06T03:24:00.923Z,1009.10
2016-10-06T03:24:22.630Z,1008.89
2016-10-06T03:24:44.347Z,1008.89
2016-10-06T03:25:06.056Z,1009.06
2016-10-06T03:25:27.772Z,1009.02
2016-10-06T03:25:49.494Z,1008.96
2016-10-06T03:26:11.206Z,1009.08
2016-10-06T03:26:32.921Z,1009.19
2016-10-06T03:26:54.648Z,1008.94
2016-10-06T03:27:16.361Z,1008.80
2016-10-06T03:27:38.075Z,1008.85
2016-10-06T03:27:59.800Z,1008.97
2016-10-06T03:28:21.508Z,1009.03
2016-10-06T03:28:43.223Z,1009.09
2016-10-06T03:29:04.930Z,1008.96
2016-10-06T03:29:26.649Z,1009.09
2016-10-06T03:29:48.352Z,1009.10
2016-10-06T03:30:12.879Z,1008.93
2016-10-06T03:30:34.603Z,1009.10
2016-10-06T03:30:56.320Z,1009.07
2016-10-06T03:31:18.040Z,1008.94
2016-10-06T03:31:39.742Z,1008.92
2016-10-06T03:32:01.454Z,1009.14
2016-10-06T03:32:23.167Z,1009.13
2016-10-06T03:32:44.888Z,1008.92
2016-10-06T03:33:06.607Z,1008.89
2016-10-06T03:33:28.316Z,1008.81
2016-10-06T03:33:50.024Z,1008.87
2016-10-06T03:34:11.738Z,1008.87
2016-10-06T03:34:33.461Z,1008.98
2016-10-06T03:34:55.168Z,1009.01
2016-10-06T03:35:48.139Z,1008.94
2016-10-06T03:36:09.870Z,1009.06
2016-10-06T03:36:32.579Z,1009.05
2016-10-06T03:36:54.302Z,1009.10
2016-10-06T03:37:16.006Z,1008.91
2016-10-06T03:37:37.721Z,1008.93
2016-10-06T03:37:59.436Z,1008.90
2016-10-06T03:38:21.155Z,1008.86
2016-10-06T03:38:42.864Z,1009.02
2016-10-06T03:39:04.577Z,1009.15
2016-10-06T03:39:26.293Z,1009.06
2016-10-06T03:39:48.005Z,1009.04
2016-10-06T03:40:09.724Z,1009.05
2016-10-06T03:40:31.435Z,1009.10
2016-10-06T03:40:53.142Z,1009.11
2016-10-06T03:41:14.854Z,1008.95
2016-10-06T03:41:36.563Z,1008.99
2016-10-06T03:41:58.285Z,1009.15
2016-10-06T03:42:19.991Z,1009.02
2016-10-06T03:42:41.701Z,1009.05
2016-10-06T03:43:03.434Z,1009.25
2016-10-06T03:43:25.148Z,1009.09
2016-10-06T03:43:46.861Z,1009.12
2016-10-06T03:44:08.569Z,1009.01
2016-10-06T03:44:30.278Z,1008.89
2016-10-06T03:44:51.997Z,1008.85
2016-10-06T03:45:13.708Z,1008.81
2016-10-06T03:45:35.420Z,1008.92
2016-10-06T03:45:57.134Z,1008.92
2016-10-06T03:46:18.854Z,1009.02
2016-10-06T03:46:40.573Z,1008.95
2016-10-06T03:47:02.286Z,1009.14
2016-10-06T03:47:24.022Z,1009.18
2016-10-06T03:47:45.736Z,1008.92
2016-10-06T03:48:09.457Z,1008.89
2016-10-06T03:48:31.164Z,1009.09
2016-10-06T03:48:52.875Z,1009.10
2016-10-06T03:49:14.593Z,1008.95
2016-10-06T03:49:36.315Z,1008.91
2016-10-06T03:49:58.019Z,1009.11
2016-10-06T03:50:19.728Z,1008.85
2016-10-06T03:50:41.446Z,1008.76
2016-10-06T03:51:03.156Z,1009.00
2016-10-06T03:51:24.879Z,1009.02
2016-10-06T03:51:46.587Z,1008.95
2016-10-06T03:52:08.318Z,1009.01
2016-10-06T03:52:30.030Z,1009.10
2016-10-06T03:52:51.755Z,1009.10
2016-10-06T03:53:13.464Z,1009.02
2016-10-06T03:53:35.183Z,1009.04
2016-10-06T03:53:56.905Z,1008.78
2016-10-06T03:54:18.614Z,1008.98
2016-10-06T03:54:40.332Z,1009.05
2016-10-06T03:55:02.055Z,1008.88
2016-10-06T03:55:23.774Z,1009.00
2016-10-06T03:55:45.495Z,1009.00
2016-10-06T03:56:07.204Z,1009.01
2016-10-06T03:56:28.914Z,1008.99
2016-10-06T03:56:50.624Z,1008.84
2016-10-06T03:57:12.351Z,1008.82
2016-10-06T03:57:34.067Z,1008.90
2016-10-06T03:57:55.806Z,1009.02
2016-10-06T03:58:17.526Z,1008.93
2016-10-06T03:58:39.244Z,1008.85
2016-10-06T03:59:00.956Z,1008.94
2016-10-06T03:59:22.668Z,1008.98
2016-10-06T03:59:44.384Z,1009.01
2016-10-06T04:00:10.871Z,1008.96
2016-10-06T04:00:32.581Z,1008.80
2016-10-06T04:00:54.295Z,1008.81
2016-10-06T04:01:16.008Z,1008.97
2016-10-06T04:01:37.718Z,1009.00
2016-10-06T04:01:59.439Z,1008.85
2016-10-06T04:02:21.148Z,1008.67
2016-10-06T04:02:42.865Z,1008.68
2016-10-06T04:03:04.577Z,1008.92
2016-10-06T04:03:26.297Z,1008.79
2016-10-06T04:03:48.017Z,1008.94
2016-10-06T04:04:09.733Z,1008.94
2016-10-06T04:04:31.454Z,1008.74
2016-10-06T04:04:53.179Z,1008.76
2016-10-06T04:05:14.882Z,1008.69
2016-10-06T04:05:36.592Z,1008.66
2016-10-06T04:05:58.310Z,1008.82
2016-10-06T04:06:20.022Z,1008.85
2016-10-06T04:06:41.737Z,1009.02
2016-10-06T04:07:03.475Z,1008.87
2016-10-06T04:07:25.186Z,1008.72
2016-10-06T04:07:46.894Z,1008.83
2016-10-06T04:08:08.617Z,1008.74
2016-10-06T04:08:30.347Z,1008.76
2016-10-06T04:08:52.060Z,1008.72
2016-10-06T04:09:13.783Z,1008.68
2016-10-06T04:09:35.510Z,1008.75
2016-10-06T04:09:57.232Z,1008.74
2016-10-06T04:10:18.941Z,1008.87
2016-10-06T04:10:40.655Z,1008.73
2016-10-06T04:11:02.369Z,1008.85
2016-10-06T04:11:24.080Z,1008.81
2016-10-06T04:11:45.801Z,1008.77
2016-10-06T04:12:07.522Z,1008.85
2016-10-06T04:12:29.238Z,1008.69
2016-10-06T04:12:50.966Z,1008.63
2016-10-06T04:13:12.686Z,1008.63
2016-10-06T04:13:34.401Z,1008.64
2016-10-06T04:13:56.112Z,1008.71
2016-10-06T04:14:17.823Z,1008.79
2016-10-06T04:14:39.532Z,1008.75
2016-10-06T04:15:01.250Z,1008.87
2016-10-06T04:15:22.975Z,1008.79
2016-10-06T04:15:44.687Z,1008.64
2016-10-06T04:16:06.396Z,1008.64
2016-10-06T04:16:28.106Z,1008.70
2016-10-06T04:16:49.809Z,1008.75
2016-10-06T04:17:11.538Z,1008.73
2016-10-06T04:17:33.247Z,1008.50
2016-10-06T04:17:54.952Z,1008.67
2016-10-06T04:18:16.669Z,1008.64
2016-10-06T04:18:38.378Z,1008.77
2016-10-06T04:19:00.115Z,1008.64
2016-10-06T04:19:21.908Z,1008.73
2016-10-06T04:19:43.625Z,1008.57
2016-10-06T04:20:05.338Z,1008.71
2016-10-06T04:20:27.047Z,1008.57
2016-10-06T04:20:48.770Z,1008.57
2016-10-06T04:21:10.490Z,1008.58
2016-10-06T04:21:32.229Z,1008.73
2016-10-06T04:21:53.927Z,1008.55
2016-10-06T04:22:15.644Z,1008.61
2016-10-06T04:22:37.356Z,1008.75
2016-10-06T04:22:59.073Z,1008.81
2016-10-06T04:23:20.787Z,1008.63
2016-10-06T04:23:42.515Z,1008.75
2016-10-06T04:24:04.216Z,1008.64
2016-10-06T04:24:25.946Z,1008.61
2016-10-06T04:24:47.647Z,1008.60
2016-10-06T04:25:09.381Z,1008.66
2016-10-06T04:25:31.132Z,1008.65
2016-10-06T04:25:52.849Z,1008.69
2016-10-06T04:26:14.568Z,1008.62
2016-10-06T04:26:36.274Z,1008.52
2016-10-06T04:26:58.001Z,1008.54
2016-10-06T04:27:19.728Z,1008.58
2016-10-06T04:27:41.463Z,1008.53
2016-10-06T04:28:03.183Z,1008.50
2016-10-06T04:28:24.903Z,1008.53
2016-10-06T04:28:53.946Z,1008.56
2016-10-06T04:29:15.665Z,1008.58
2016-10-06T04:29:38.384Z,1008.56
2016-10-06T04:30:00.124Z,1008.48
2016-10-06T04:30:21.850Z,1008.55
2016-10-06T04:30:43.567Z,1008.52